Map

Track Data

SID SEASON NUMBER BASIN SUBBASIN NAME ISO_TIME NATURE LAT LON WMO_WIND WMO_PRES WMO_AGENCY TRACK_TYPE DIST2LAND LANDFALL IFLAG USA_AGENCY USA_ATCF_ID USA_LAT USA_LON USA_RECORD USA_STATUS USA_WIND USA_PRES USA_SSHS USA_R34_NE USA_R34_SE USA_R34_SW USA_R34_NW USA_R50_NE USA_R50_SE USA_R50_SW USA_R50_NW USA_R64_NE USA_R64_SE USA_R64_SW USA_R64_NW USA_POCI USA_ROCI USA_RMW USA_EYE TOKYO_LAT TOKYO_LON TOKYO_GRADE TOKYO_WIND TOKYO_PRES TOKYO_R50_DIR TOKYO_R50_LONG TOKYO_R50_SHORT TOKYO_R30_DIR TOKYO_R30_LONG TOKYO_R30_SHORT TOKYO_LAND CMA_LAT CMA_LON CMA_CAT CMA_WIND CMA_PRES HKO_LAT HKO_LON HKO_CAT HKO_WIND HKO_PRES NEWDELHI_LAT NEWDELHI_LON NEWDELHI_GRADE NEWDELHI_WIND NEWDELHI_PRES NEWDELHI_CI NEWDELHI_DP NEWDELHI_POCI REUNION_LAT REUNION_LON REUNION_TYPE REUNION_WIND REUNION_PRES REUNION_TNUM REUNION_CI REUNION_RMW REUNION_R34_NE REUNION_R34_SE REUNION_R34_SW REUNION_R34_NW REUNION_R50_NE REUNION_R50_SE REUNION_R50_SW REUNION_R50_NW REUNION_R64_NE REUNION_R64_SE REUNION_R64_SW REUNION_R64_NW BOM_LAT BOM_LON BOM_TYPE BOM_WIND BOM_PRES BOM_TNUM BOM_CI BOM_RMW BOM_R34_NE BOM_R34_SE BOM_R34_SW BOM_R34_NW BOM_R50_NE BOM_R50_SE BOM_R50_SW BOM_R50_NW BOM_R64_NE BOM_R64_SE BOM_R64_SW BOM_R64_NW BOM_ROCI BOM_POCI BOM_EYE BOM_POS_METHOD BOM_PRES_METHOD NADI_LAT NADI_LON NADI_CAT NADI_WIND NADI_PRES WELLINGTON_LAT WELLINGTON_LON WELLINGTON_WIND WELLINGTON_PRES DS824_LAT DS824_LON DS824_STAGE DS824_WIND DS824_PRES TD9636_LAT TD9636_LON TD9636_STAGE TD9636_WIND TD9636_PRES TD9635_LAT TD9635_LON TD9635_WIND TD9635_PRES TD9635_ROCI NEUMANN_LAT NEUMANN_LON NEUMANN_CLASS NEUMANN_WIND NEUMANN_PRES MLC_LAT MLC_LON MLC_CLASS MLC_WIND MLC_PRES USA_GUST BOM_GUST BOM_GUST_PER REUNION_GUST REUNION_GUST_PER USA_SEAHGT USA_SEARAD_NE USA_SEARAD_SE USA_SEARAD_SW USA_SEARAD_NW STORM_SPEED STORM_DIR
1989169N13265 1989 46 EP MM COSME 1989-06-18 00:00:00 TS 13.2000 -94.9000 25 hurdat_epa main 310 298 O_________O___ hurdat_epa EP031989 13.2000 -94.9000 TD 25 -1 13.2000 -94.9000 1 25 3 329
1989169N13265 1989 46 EP MM COSME 1989-06-18 03:00:00 TS 13.3074 -94.9679 main 298 283 P_________P___ EP031989 13.2924 -94.9276 TD 27 -1 13.3522 -95.0886 1 26 3 312
1989169N13265 1989 46 EP MM COSME 1989-06-18 06:00:00 TS 13.4209 -95.1555 30 hurdat_epa main 279 257 O_________P___ hurdat_epa EP031989 13.4000 -95.1000 TD 30 -1 13.4836 -95.3218 1 27 6 292
1989169N13265 1989 46 EP MM COSME 1989-06-18 09:00:00 TS 13.5352 -95.5490 main 257 230 P_________P___ EP031989 13.5225 -95.5173 TD 30 -1 13.5733 -95.6442 1 28 9 281
1989169N13265 1989 46 EP MM COSME 1989-06-18 12:00:00 TS 13.6000 -96.1000 30 hurdat_epa main 230 223 O_________O___ hurdat_epa EP031989 13.6000 -96.1000 TD 30 -1 13.6000 -96.1000 1 30 11 272
1989169N13265 1989 46 EP MM COSME 1989-06-18 15:00:00 TS 13.5783 -96.7234 main 224 224 P_________P___ EP031989 13.5875 -96.7275 TD 30 -1 13.5508 -96.7110 1 30 13 265
1989169N13265 1989 46 EP MM COSME 1989-06-18 18:00:00 TS 13.4868 -97.4022 30 1009 hurdat_epa main 250 250 O_________P___ hurdat_epa EP031989 13.5000 -97.4000 TD 30 1009 -1 13.4471 -97.4086 1 30 13 260
1989169N13265 1989 46 EP MM COSME 1989-06-18 21:00:00 TS 13.3480 -98.0855 main 302 302 P_________P___ EP031989 13.3575 -98.0801 TD 30 1009 -1 13.3195 -98.1017 1 30 13 257
1989169N13265 1989 46 EP MM COSME 1989-06-19 00:00:00 TS 13.2000 -98.7000 30 1009 hurdat_epa main 328 328 O_________O___ hurdat_epa EP031989 13.2000 -98.7000 TD 30 1009 -1 13.2000 -98.7000 1 30 11 257
1989169N13265 1989 46 EP MM COSME 1989-06-19 03:00:00 TS 13.0898 -99.2132 main 357 357 P_________P___ EP031989 13.0774 -99.2325 TD 30 1009 -1 13.1268 -99.1556 1 30 9 258
1989169N13265 1989 46 EP MM COSME 1989-06-19 06:00:00 TS 13.0173 -99.5743 30 1009 hurdat_epa main 384 384 O_________P___ hurdat_epa EP031989 13.0000 -99.6000 TD 30 1009 -1 13.0691 -99.4971 1 30 5 261
1989169N13265 1989 46 EP MM COSME 1989-06-19 09:00:00 TS 13.0010 -99.7600 main 391 391 P_________P___ EP031989 12.9924 -99.7749 TD 30 1008 -1 13.0270 -99.7151 1 30 2 266
1989169N13265 1989 46 EP MM COSME 1989-06-19 12:00:00 TS 13.0000 -99.8000 30 1008 hurdat_epa main 391 391 O_________O___ hurdat_epa EP031989 13.0000 -99.8000 TD 30 1008 -1 13.0000 -99.8000 1 30 1 209
1989169N13265 1989 46 EP MM COSME 1989-06-19 15:00:00 TS 12.9522 -99.7694 main 391 391 P_________P___ EP031989 12.9424 -99.8100 TD 30 1006 -1 12.9816 -99.6853 1 31 2 117
1989169N13265 1989 46 EP MM COSME 1989-06-19 18:00:00 TS 12.9194 -99.6394 30 1005 hurdat_epa main 395 387 O_________P___ hurdat_epa EP031989 12.9000 -99.7000 TD 30 1005 -1 12.9776 -99.4575 1 32 4 90
1989169N13265 1989 46 EP MM COSME 1989-06-19 21:00:00 TS 12.9494 -99.3853 main 387 368 P_________P___ EP031989 12.9351 -99.3401 TD 32 1001 -1 12.9847 -99.2260 1 33 4 79
1989169N13265 1989 46 EP MM COSME 1989-06-20 00:00:00 TS 13.0000 -99.2250 35 998 hurdat_epa main 368 368 O_________O___ hurdat_epa EP031989 13.0000 -99.1000 TS 35 998 0 13.0000 -99.1000 2 35 1 346
1989169N13265 1989 46 EP MM COSME 1989-06-20 03:00:00 TS 13.0354 -99.4114 main 377 374 P_________P___ EP031989 13.0577 -99.3824 TS 37 996 0 13.0262 -99.2683 2 37 5 278
1989169N13265 1989 46 EP MM COSME 1989-06-20 06:00:00 TS 13.0645 -99.7119 40 995 hurdat_epa main 377 377 O_________P___ hurdat_epa EP031989 13.1000 -99.8000 TS 40 995 0 13.0580 -99.5474 2 40 5 276
1989169N13265 1989 46 EP MM COSME 1989-06-20 09:00:00 TS 13.0877 -99.9357 main 384 384 P_________P___ EP031989 13.1074 -99.9950 TS 42 994 0 13.0857 -99.8527 2 42 4 275
1989169N13265 1989 46 EP MM COSME 1989-06-20 12:00:00 TS 13.1000 -100.100 45 994 hurdat_epa main 392 392 O_________O___ hurdat_epa EP031989 13.1000 -100.100 TS 45 994 0 13.1000 -100.100 2 45 2 273
1989169N13265 1989 46 EP MM COSME 1989-06-20 15:00:00 TS 13.1007 -100.184 main 397 397 P_________P___ EP031989 13.1075 -100.180 TS 50 993 0 13.0730 -100.188 2 47 1 260
1989169N13265 1989 46 EP MM COSME 1989-06-20 18:00:00 TS 13.0837 -100.201 55 992 hurdat_epa main 397 397 O_________P___ hurdat_epa EP031989 13.1000 -100.200 TS 55 992 0 13.0348 -100.205 2 50 1 0
1989169N13265 1989 46 EP MM COSME 1989-06-20 21:00:00 TS 13.0273 -100.172 main 407 403 P_________P___ EP031989 13.0350 -100.172 TS 55 991 0 13.0043 -100.169 2 52 1 132
1989169N13265 1989 46 EP MM COSME 1989-06-21 00:00:00 TS 13.0000 -100.100 55 990 hurdat_epa main 403 398 O_________O___ hurdat_epa EP031989 13.0000 -100.100 TS 55 990 0 13.0000 -100.100 2 55 2 82
1989169N13265 1989 46 EP MM COSME 1989-06-21 03:00:00 TS 13.0475 -100.013 main 398 384 P_________P___ EP031989 13.0850 -100.008 TS 57 988 0 12.9651 -100.029 2 57 2 52
1989169N13265 1989 46 EP MM COSME 1989-06-21 06:00:00 TS 13.1425 -99.9074 60 987 hurdat_epa main 384 370 O_________P___ hurdat_epa EP031989 13.2000 -99.9000 TS 60 987 0 12.9701 -99.9296 2 60 3 52
1989169N13265 1989 46 EP MM COSME 1989-06-21 09:00:00 TS 13.2050 -99.8039 main 370 345 P_________P___ EP031989 13.1750 -99.7999 TS 62 984 0 13.0651 -99.8160 2 62 3 38
1989169N13265 1989 46 EP MM COSME 1989-06-21 12:00:00 TS 13.4000 -99.7000 65 982 hurdat_epa main 345 299 O_________O___ hurdat_epa EP031989 13.3000 -99.7000 HU 65 982 1 13.3000 -99.7000 3 65 7 17
1989169N13265 1989 46 EP MM COSME 1989-06-21 15:00:00 TS 13.8520 -99.6000 main 289 233 P_________P___ EP031989 13.8250 -99.6001 HU 67 981 1 13.7030 -99.6000 3 67 11 11
1989169N13265 1989 46 EP MM COSME 1989-06-21 18:00:00 TS 14.4369 -99.5000 70 980 hurdat_epa main 233 178 O_________P___ hurdat_epa EP031989 14.5000 -99.5000 HU 70 980 1 14.2477 -99.5000 3 70 11 9
1989169N13265 1989 46 EP MM COSME 1989-06-21 21:00:00 TS 14.9713 -99.4112 main 168 108 P_________P___ EP031989 14.9932 -99.4225 HU 72 979 1 14.8936 -99.3999 3 72 12 9
1989169N13265 1989 46 EP MM COSME 1989-06-22 00:00:00 TS 15.6000 -99.3000 75 979 hurdat_epa main 108 33 O_________O___ hurdat_epa EP031989 15.6000 -99.3000 HU 75 979 1 15.6000 -99.3000 4 75 15 11
1989169N13265 1989 46 EP MM COSME 1989-06-22 03:00:00 TS 16.4177 -99.1290 main 33 11 P_________P___ EP031989 16.5880 -99.0696 HU 71 979 1 16.2472 -99.1918 4 66 16 12
1989169N13265 1989 46 EP MM COSME 1989-06-22 04:00:00 TS 16.6400 -99.0767 70 980 hurdat_epa main 11 0 O_________P___ hurdat_epa EP031989 16.8000 -99.0000 L HU 70 980 1 16.4745 -99.1558 4 63 11 14
1989169N13265 1989 46 EP MM COSME 1989-06-22 06:00:00 TS 16.9376 -98.9962 65 985 hurdat_epa main 0 0 O_________P___ hurdat_epa EP031989 16.9000 -98.9000 HU 65 985 1 16.9505 -99.0850 4 57 13 6
1989169N13265 1989 46 EP MM COSME 1989-06-22 09:00:00 TS 17.6747 -98.9588 main 0 0 P_________P___ EP031989 17.5613 -98.8713 HU 52 992 0 17.7285 -98.9856 4 48 17 1
1989169N13265 1989 46 EP MM COSME 1989-06-22 12:00:00 TS 18.6500 -98.9500 40 1000 hurdat_epa main 0 0 O_________O___ hurdat_epa EP031989 18.6000 -98.9000 TS 40 1000 0 18.6000 -98.9000 2 40 20 2
1989169N13265 1989 46 EP MM COSME 1989-06-22 15:00:00 TS 19.6717 -98.8875 main 0 0 P_________P___ EP031989 19.6126 -98.8576 TS 37 1002 0 19.6342 -98.8548 2 37 21 4
1989169N13265 1989 46 EP MM COSME 1989-06-22 18:00:00 TS 20.7625 -98.8052 35 1005 hurdat_epa main 0 0 O_________P___ hurdat_epa EP031989 20.7000 -98.8000 TS 35 1005 0 20.7499 -98.8207 2 35 22 4
1989169N13265 1989 46 EP MM COSME 1989-06-22 21:00:00 TS 21.8745 -98.7173 main 0 0 P_________P___ EP031989 21.8225 -98.7500 TS 32 1006 -1 21.8657 -98.7765 2 32 22 4
1989169N13265 1989 46 EP MM COSME 1989-06-23 00:00:00 TS 22.9250 -98.6250 30 1008 hurdat_epa main 0 0 O_________O___ hurdat_epa EP031989 22.9000 -98.7000 TD 30 1008 -1 22.9000 -98.7000 1 30 20 4
1989169N13265 1989 46 EP MM COSME 1989-06-23 03:00:00 TS 23.8541 -98.5509 main 0 0 P_________P___ EP031989 23.8748 -98.6869 TD 27 1008 -1 23.7920 -98.5748 1 27 17 5
1989169N13265 1989 46 EP MM COSME 1989-06-23 06:00:00 TS 24.6406 -98.4519 25 1008 hurdat_epa main 0 0 O_________P___ hurdat_epa EP031989 24.7000 -98.6000 TD 25 1008 -1 24.5623 -98.4077 1 25 15 9
1989169N13265 1989 46 EP MM COSME 1989-06-23 09:00:00 TS 25.2849 -98.2946 main 0 0 P_________P___ EP031989 25.3503 -98.3510 TD 22 1008 -1 25.2515 -98.2117 1 22 13 15
1989169N13265 1989 46 EP MM COSME 1989-06-23 12:00:00 TS 25.8500 -98.1000 20 1008 hurdat_epa main 0 O_________O___ hurdat_epa EP031989 25.9000 -98.0000 TD 20 1008 -1 25.9000 -98.0000 1 20 12 17

About IBTrACS Database

This database is a web-friendly format of International Best Track Archive for Climate Stewardship (IBTrACS), a global best track data archive curated by NOAA dating back to 1842.

Updated: 2021-12-03